Time;durP1;ratioP1;P1;durP2;ratioP2;P2;SDS_P1;SDS_P2;PMS_P1;PMS_P2;Temp;Humidity;BMP_temperature;BMP_pressure;BME280_temperature;BME280_humidity;BME280_pressure;Samples;Min_cycle;Max_cycle;Signal;HPM_P1;HPM_P2
2022/05/29 00:01:35;;;;;;;4.88;1.80;;;;;;;12.95;55.57;99957.28;4979057;28;97342;-72
2022/05/29 00:04:01;;;;;;;3.85;1.65;;;;;;;12.86;55.40;99954.16;4977584;28;97248;-72
2022/05/29 00:06:26;;;;;;;6.35;1.70;;;;;;;12.85;55.48;99955.06;4969479;28;101019;-72
2022/05/29 00:08:52;;;;;;;5.30;2.08;;;;;;;12.83;55.29;99956.09;4988978;28;101034;-72
2022/05/29 00:11:17;;;;;;;5.60;2.08;;;;;;;12.74;55.34;99957.41;4986670;28;96959;-72
2022/05/29 00:13:46;;;;;;;4.57;1.98;;;;;;;12.69;56.01;99949.72;4988081;28;96958;-72
2022/05/29 00:16:12;;;;;;;6.75;2.70;;;;;;;12.73;55.64;99955.69;4974624;28;97683;-72
2022/05/29 00:18:38;;;;;;;6.47;1.90;;;;;;;12.68;55.60;99948.03;4973911;28;97893;-72
2022/05/29 00:21:05;;;;;;;3.47;1.67;;;;;;;12.60;55.87;99921.22;4968595;28;97174;-72
2022/05/29 00:23:32;;;;;;;6.15;1.80;;;;;;;12.74;55.66;99946.00;4987941;28;97167;-72
2022/05/29 00:25:57;;;;;;;6.65;1.92;;;;;;;12.69;56.17;99952.34;5012237;28;98121;-73
2022/05/29 00:28:23;;;;;;;10.18;1.90;;;;;;;12.66;55.69;99943.75;4976927;28;97302;-75
2022/05/29 00:30:48;;;;;;;3.35;1.58;;;;;;;12.60;56.34;99950.16;4977551;28;96755;-72
2022/05/29 00:33:14;;;;;;;5.95;1.83;;;;;;;12.57;56.15;99941.56;4986536;28;97572;-72
2022/05/29 00:35:39;;;;;;;6.18;1.95;;;;;;;12.57;56.31;99933.66;4970907;28;98296;-72
2022/05/29 00:38:10;;;;;;;6.18;2.60;;;;;;;12.59;56.01;99937.06;4956947;28;101472;-72
2022/05/29 00:40:48;;;;;;;2.90;1.60;;;;;;;12.53;55.72;99937.34;4972812;28;96822;-72
2022/05/29 00:43:14;;;;;;;5.97;1.92;;;;;;;12.47;56.57;99933.25;4989276;28;97415;-74
2022/05/29 00:45:49;;;;;;;4.82;2.30;;;;;;;12.49;55.97;99930.56;4988763;28;98203;-72
2022/05/29 00:48:17;;;;;;;3.28;1.90;;;;;;;12.22;56.59;99904.63;4955993;28;100944;-73
2022/05/29 00:50:44;;;;;;;6.75;2.30;;;;;;;12.24;56.01;99914.13;4975622;28;97843;-72
2022/05/29 00:53:10;;;;;;;8.48;2.53;;;;;;;12.33;56.59;99939.16;4972302;28;97025;-72
2022/05/29 00:55:36;;;;;;;4.88;1.70;;;;;;;12.37;56.55;99939.88;4969774;28;101258;-72
2022/05/29 00:58:04;;;;;;;7.43;2.13;;;;;;;12.31;56.82;99934.91;4993758;28;97930;-72
2022/05/29 01:00:30;;;;;;;6.18;2.25;;;;;;;12.14;56.42;99904.97;4973467;28;96842;-72
2022/05/29 01:02:59;;;;;;;6.68;1.67;;;;;;;12.29;56.79;99923.59;4977285;28;96838;-72
2022/05/29 01:05:26;;;;;;;6.82;2.30;;;;;;;12.24;56.55;99929.06;4985109;28;101021;-75
2022/05/29 01:08:43;;;;;;;6.28;3.17;;;;;;;12.20;56.88;99931.00;4962738;28;101164;-73
2022/05/29 01:11:08;;;;;;;8.02;2.55;;;;;;;12.16;56.36;99934.72;4966219;28;96827;-73
2022/05/29 01:14:00;;;;;;;3.65;2.00;;;;;;;12.14;57.07;99931.28;4973480;28;97774;-72
2022/05/29 01:16:29;;;;;;;6.70;2.40;;;;;;;12.09;57.51;99925.38;4922508;28;101740;-73
2022/05/29 01:19:10;;;;;;;6.40;1.85;;;;;;;12.08;57.34;99920.19;4963924;28;97598;-73
2022/05/29 01:22:12;;;;;;;5.20;2.03;;;;;;;11.98;57.44;99928.53;4946287;28;97660;-72
2022/05/29 01:24:56;;;;;;;4.68;2.05;;;;;;;12.05;57.03;99929.09;4973144;28;97336;-73
2022/05/29 01:27:40;;;;;;;7.57;2.20;;;;;;;12.05;57.36;99921.19;4968986;28;100899;-72
2022/05/29 01:30:15;;;;;;;4.35;1.60;;;;;;;12.00;57.20;99934.53;4942481;28;100991;-73
2022/05/29 01:32:43;;;;;;;6.53;1.90;;;;;;;11.99;57.31;99924.97;4937906;28;97347;-72
2022/05/29 01:35:13;;;;;;;6.72;2.22;;;;;;;11.90;57.54;99920.13;4969073;28;96801;-73
2022/05/29 01:38:03;;;;;;;4.50;2.08;;;;;;;12.00;57.29;99925.81;4950322;28;101771;-72
2022/05/29 01:40:41;;;;;;;8.68;1.98;;;;;;;11.94;57.43;99926.94;4934070;28;98474;-72
2022/05/29 01:43:20;;;;;;;6.50;3.15;;;;;;;11.86;57.55;99909.81;5006410;28;97124;-73
2022/05/29 01:45:54;;;;;;;7.05;2.33;;;;;;;11.86;57.64;99929.06;4963726;28;97290;-72
2022/05/29 01:48:46;;;;;;;5.65;1.90;;;;;;;11.82;57.47;99930.09;5000107;28;101093;-72
2022/05/29 01:51:15;;;;;;;6.78;2.72;;;;;;;11.86;57.68;99923.81;4969280;28;101497;-72
2022/05/29 01:53:50;;;;;;;10.55;4.65;;;;;;;11.65;58.15;99901.94;4961668;28;97951;-72
2022/05/29 01:56:23;;;;;;;7.25;2.75;;;;;;;11.76;58.28;99920.72;4959130;28;96992;-72
2022/05/29 01:58:54;;;;;;;6.82;4.05;;;;;;;11.69;58.19;99915.78;4976147;28;101196;-75
2022/05/29 02:01:25;;;;;;;6.45;5.00;;;;;;;11.60;57.80;99903.06;4986078;28;97935;-72
2022/05/29 02:03:52;;;;;;;6.65;4.10;;;;;;;11.61;58.42;99917.94;4973072;28;97157;-72
2022/05/29 02:09:22;;;;;;;10.35;5.88;;;;;;;11.52;58.14;99880.63;4989381;28;98480;-72
2022/05/29 02:11:53;;;;;;;4.00;1.95;;;;;;;11.59;58.54;99922.41;4975106;28;97898;-73
2022/05/29 02:14:26;;;;;;;5.32;2.08;;;;;;;11.60;58.35;99903.91;4985680;28;97525;-72
2022/05/29 02:16:59;;;;;;;6.25;2.10;;;;;;;11.43;58.49;99885.41;4973460;28;96981;-72
2022/05/29 02:19:28;;;;;;;7.18;1.67;;;;;;;11.52;58.50;99908.69;4973739;28;101697;-75
2022/05/29 02:21:55;;;;;;;6.55;1.88;;;;;;;11.28;58.89;99895.66;4981008;28;100618;-73
2022/05/29 02:24:24;;;;;;;6.85;2.30;;;;;;;11.38;59.05;99913.69;4980340;28;97343;-72
2022/05/29 02:27:06;;;;;;;4.88;1.83;;;;;;;11.32;58.82;99892.00;4975102;28;96881;-73
2022/05/29 02:29:32;;;;;;;4.97;2.03;;;;;;;11.51;58.75;99912.22;4990888;28;97887;-72
2022/05/29 02:32:16;;;;;;;5.03;1.73;;;;;;;11.36;58.89;99905.00;4975881;28;98030;-72
2022/05/29 02:34:54;;;;;;;5.35;1.73;;;;;;;11.27;59.25;99909.75;4972961;28;97053;-72
2022/05/29 02:37:39;;;;;;;5.53;1.88;;;;;;;11.35;58.97;99921.72;4973566;28;98026;-72
2022/05/29 02:40:29;;;;;;;5.50;2.10;;;;;;;11.29;59.20;99930.72;4988435;28;97889;-72
2022/05/29 02:43:22;;;;;;;6.63;2.15;;;;;;;11.30;59.21;99930.63;5008965;28;101494;-73
2022/05/29 02:46:08;;;;;;;6.38;1.88;;;;;;;11.22;59.45;99935.34;5008181;28;96680;-72
2022/05/29 02:48:40;;;;;;;4.18;2.00;;;;;;;11.23;59.24;99931.81;4984839;28;96855;-72
2022/05/29 02:51:05;;;;;;;5.55;2.05;;;;;;;11.30;59.10;99929.78;5005413;28;99154;-73
2022/05/29 02:53:32;;;;;;;5.57;1.70;;;;;;;11.31;59.58;99934.97;4972655;28;101939;-72
2022/05/29 02:55:58;;;;;;;4.75;1.83;;;;;;;11.21;59.63;99938.06;4964645;28;97205;-72
2022/05/29 02:58:26;;;;;;;6.80;1.90;;;;;;;11.26;59.37;99923.81;4967653;28;97157;-72
2022/05/29 03:00:58;;;;;;;3.63;2.03;;;;;;;11.31;59.33;99928.84;4986715;28;101293;-72
2022/05/29 03:03:53;;;;;;;6.30;1.92;;;;;;;11.24;59.66;99935.31;4973716;28;102201;-72
2022/05/29 03:06:39;;;;;;;7.88;2.20;;;;;;;11.22;59.68;99924.84;4973121;28;97139;-72
2022/05/29 03:09:21;;;;;;;11.95;2.00;;;;;;;11.14;60.04;99928.72;4984154;28;96887;-74
2022/05/29 03:11:46;;;;;;;5.55;2.05;;;;;;;11.15;59.63;99931.28;4959518;28;101276;-72
2022/05/29 03:14:21;;;;;;;8.98;2.35;;;;;;;11.04;59.54;99905.47;4957068;28;101258;-72
2022/05/29 03:16:55;;;;;;;5.47;1.70;;;;;;;11.18;59.74;99931.16;4973584;28;97226;-73
2022/05/29 03:19:31;;;;;;;6.22;1.80;;;;;;;11.31;59.64;99932.34;5004965;28;97200;-72
2022/05/29 03:22:12;;;;;;;6.43;2.50;;;;;;;11.47;59.11;99926.41;4966271;28;101538;-73
2022/05/29 03:24:49;;;;;;;3.58;1.65;;;;;;;11.25;59.58;99916.81;4988874;28;97793;-72
2022/05/29 03:27:22;;;;;;;7.32;2.00;;;;;;;11.52;59.10;99930.56;4987381;28;96717;-72
2022/05/29 03:29:54;;;;;;;4.60;2.10;;;;;;;11.56;58.71;99921.59;4957739;28;97242;-72
2022/05/29 03:32:20;;;;;;;5.68;2.00;;;;;;;11.59;59.15;99922.41;4987817;28;98500;-72
2022/05/29 03:34:45;;;;;;;4.68;2.10;;;;;;;11.55;58.77;99919.91;4974755;28;97805;-72
2022/05/29 03:37:11;;;;;;;6.30;2.50;;;;;;;11.60;58.59;99909.16;4992691;28;96816;-73
2022/05/29 03:39:36;;;;;;;8.50;2.20;;;;;;;11.56;59.06;99921.59;4972979;28;96912;-74
2022/05/29 03:42:02;;;;;;;7.82;2.35;;;;;;;11.57;59.19;99923.31;5004870;28;98032;-74
2022/05/29 03:44:28;;;;;;;10.38;2.30;;;;;;;11.66;58.82;99922.03;4970647;28;101118;-74
2022/05/29 03:46:54;;;;;;;5.85;2.58;;;;;;;11.73;58.07;99915.59;5001276;28;97891;-74
2022/05/29 03:49:21;;;;;;;9.55;1.70;;;;;;;11.82;58.31;99922.22;4987905;28;97278;-74
2022/05/29 03:51:47;;;;;;;3.42;2.00;;;;;;;11.91;58.25;99932.34;4971043;28;101400;-74
2022/05/29 03:54:13;;;;;;;8.77;2.03;;;;;;;11.91;58.29;99927.09;4990233;28;97846;-74
2022/05/29 03:56:39;;;;;;;6.93;2.00;;;;;;;11.81;57.92;99901.22;4973272;28;97241;-74
2022/05/29 03:59:05;;;;;;;8.35;1.85;;;;;;;11.94;58.23;99908.53;4990151;28;96933;-76
2022/05/29 04:01:32;;;;;;;7.20;2.10;;;;;;;12.03;57.82;99933.56;4988928;28;97321;-77
2022/05/29 04:03:57;;;;;;;8.13;2.10;;;;;;;12.18;57.58;99930.22;4972868;28;101376;-74
2022/05/29 04:06:24;;;;;;;6.28;1.80;;;;;;;12.05;57.51;99894.03;4957593;28;96895;-74
2022/05/29 04:14:20;;;;;;;9.20;1.83;;;;;;;12.43;56.88;99918.53;5002343;28;101313;-74
2022/05/29 04:16:45;;;;;;;6.00;2.10;;;;;;;12.36;57.21;99917.09;4956428;28;97030;-74
2022/05/29 04:19:11;;;;;;;7.55;1.77;;;;;;;12.42;56.81;99915.06;4972966;28;97629;-74
2022/05/29 04:21:36;;;;;;;8.35;2.08;;;;;;;12.43;56.35;99916.75;4963298;28;101191;-74
2022/05/29 04:24:02;;;;;;;5.15;2.30;;;;;;;12.56;56.18;99905.63;4973968;28;97621;-74
2022/05/29 04:26:27;;;;;;;5.68;2.45;;;;;;;12.68;56.40;99911.16;4956580;28;97053;-75
2022/05/29 04:28:53;;;;;;;5.32;1.98;;;;;;;12.81;55.86;99913.19;4971262;28;98590;-73
2022/05/29 04:31:18;;;;;;;8.52;2.05;;;;;;;12.92;55.41;99910.88;4994005;28;100865;-72
2022/05/29 04:33:45;;;;;;;5.00;1.85;;;;;;;13.03;55.35;99905.91;4973103;28;99569;-72
2022/05/29 04:36:11;;;;;;;7.18;2.38;;;;;;;13.06;55.49;99908.38;4990205;28;96728;-73
2022/05/29 04:38:37;;;;;;;5.93;2.10;;;;;;;13.17;55.27;99912.25;5007914;28;96933;-72
2022/05/29 04:41:07;;;;;;;5.68;2.00;;;;;;;13.40;54.40;99919.84;4989112;28;97667;-72
2022/05/29 04:43:33;;;;;;;7.60;1.98;;;;;;;13.45;54.51;99917.84;4972572;28;97985;-75
2022/05/29 04:45:58;;;;;;;4.55;2.10;;;;;;;13.65;54.37;99926.50;4960141;28;96676;-74
2022/05/29 04:48:24;;;;;;;8.23;2.05;;;;;;;13.83;53.86;99930.78;4987979;28;96713;-73
2022/05/29 04:51:01;;;;;;;9.68;2.75;;;;;;;13.97;52.98;99935.31;4969186;28;100956;-72
2022/05/29 04:53:28;;;;;;;8.68;1.90;;;;;;;14.08;52.23;99932.06;4968815;28;101021;-73
2022/05/29 04:55:55;;;;;;;9.05;2.42;;;;;;;14.16;52.44;99908.75;4991404;28;96587;-73
2022/05/29 04:58:22;;;;;;;3.63;1.60;;;;;;;14.43;52.56;99925.72;4983124;28;96943;-73
2022/05/29 05:00:48;;;;;;;5.65;1.90;;;;;;;14.48;51.67;99925.44;4975684;28;101425;-72
2022/05/29 05:03:14;;;;;;;10.32;1.80;;;;;;;14.71;50.76;99927.66;4973890;28;101102;-72
2022/05/29 05:05:39;;;;;;;6.43;1.90;;;;;;;14.74;51.10;99921.34;4959766;28;97249;-72
2022/05/29 05:08:05;;;;;;;6.30;2.10;;;;;;;14.91;50.20;99920.38;4959728;28;96931;-72
2022/05/29 05:10:30;;;;;;;9.48;2.20;;;;;;;15.02;50.26;99896.81;4991022;28;98097;-73
2022/05/29 05:12:56;;;;;;;6.82;2.10;;;;;;;15.23;49.80;99914.97;4987509;28;98042;-72
2022/05/29 05:15:22;;;;;;;7.57;2.35;;;;;;;15.38;49.06;99929.91;4993070;28;96605;-72
2022/05/29 05:17:48;;;;;;;7.45;1.95;;;;;;;15.61;49.03;99928.53;4957736;28;97424;-72
2022/05/29 05:20:14;;;;;;;4.65;1.80;;;;;;;15.76;48.64;99924.13;4975289;28;101354;-72
2022/05/29 05:22:40;;;;;;;7.40;1.95;;;;;;;15.70;48.28;99922.72;4958130;28;100665;-72
2022/05/29 05:25:07;;;;;;;6.15;1.88;;;;;;;15.91;48.03;99920.56;4981897;28;96749;-73
2022/05/29 05:27:33;;;;;;;6.00;1.98;;;;;;;16.06;47.62;99924.03;4992024;28;97271;-74
2022/05/29 05:29:58;;;;;;;5.28;1.90;;;;;;;16.46;47.70;99932.06;4975272;28;102005;-72
2022/05/29 05:32:24;;;;;;;7.88;2.03;;;;;;;16.59;47.08;99922.38;4973536;28;101843;-72
2022/05/29 05:34:49;;;;;;;5.13;1.90;;;;;;;16.87;46.63;99921.47;4996418;28;97217;-74
2022/05/29 05:37:16;;;;;;;11.27;2.53;;;;;;;17.10;45.66;99929.66;4960371;28;97181;-73
2022/05/29 05:39:42;;;;;;;6.40;1.85;;;;;;;17.16;45.90;99923.94;4963466;28;101335;-72
2022/05/29 05:42:07;;;;;;;4.15;2.08;;;;;;;17.20;45.41;99922.78;4974855;28;100786;-71
2022/05/29 05:44:33;;;;;;;7.18;1.83;;;;;;;17.62;44.58;99926.09;4991096;28;96935;-72
2022/05/29 05:46:59;;;;;;;5.85;1.65;;;;;;;17.94;43.64;99907.09;4975025;28;97462;-72
2022/05/29 05:49:24;;;;;;;8.18;2.40;;;;;;;18.59;42.46;99919.19;4991641;28;101071;-72
2022/05/29 05:51:51;;;;;;;7.78;2.60;;;;;;;19.42;41.26;99916.50;4988764;28;100960;-72
2022/05/29 05:54:18;;;;;;;7.35;1.90;;;;;;;20.56;39.75;99921.69;4974927;28;96801;-72
2022/05/29 05:56:47;;;;;;;6.40;2.05;;;;;;;21.56;37.88;99922.22;4962994;28;97991;-72
2022/05/29 05:59:12;;;;;;;5.10;1.92;;;;;;;22.37;36.17;99924.97;4967536;28;101364;-72
2022/05/29 06:01:38;;;;;;;6.65;1.90;;;;;;;23.32;34.71;99913.56;4960230;28;101289;-73
2022/05/29 06:04:04;;;;;;;4.93;1.88;;;;;;;24.09;33.78;99930.44;4976913;28;97865;-72
2022/05/29 06:06:30;;;;;;;9.13;2.67;;;;;;;24.45;32.49;99911.75;4992033;28;97427;-73
2022/05/29 06:08:56;;;;;;;5.40;1.73;;;;;;;24.82;31.88;99908.94;4957540;28;101642;-72
2022/05/29 06:11:27;;;;;;;4.60;1.80;;;;;;;25.87;30.85;99921.50;5008173;27;97806;-75
2022/05/29 06:13:53;;;;;;;7.95;1.65;;;;;;;26.49;30.02;99921.19;4974198;28;97301;-71
2022/05/29 06:16:19;;;;;;;6.75;2.33;;;;;;;27.23;29.34;99911.41;4962196;28;96922;-73
2022/05/29 06:18:44;;;;;;;6.88;1.63;;;;;;;27.01;28.42;99920.13;4970792;28;101375;-73
2022/05/29 06:21:10;;;;;;;6.63;1.77;;;;;;;27.15;28.62;99924.88;4959080;28;101586;-74
2022/05/29 06:23:38;;;;;;;6.35;1.85;;;;;;;27.27;27.60;99888.50;4970268;28;97141;-77
2022/05/29 06:26:09;;;;;;;5.22;2.17;;;;;;;27.40;27.52;99879.91;4962503;28;97832;-75
2022/05/29 06:28:35;;;;;;;9.20;2.30;;;;;;;27.87;27.37;99907.94;4991237;28;97537;-74
2022/05/29 06:31:05;;;;;;;3.13;1.42;;;;;;;28.61;26.69;99919.22;4978035;28;101349;-74
2022/05/29 06:33:30;;;;;;;5.72;2.95;;;;;;;29.03;26.18;99912.50;5009143;28;96745;-74
2022/05/29 06:36:10;;;;;;;6.55;2.80;;;;;;;29.27;25.53;99906.06;5003183;28;98025;-74
2022/05/29 06:38:35;;;;;;;9.73;2.40;;;;;;;29.16;25.54;99907.34;5004069;28;97558;-74
2022/05/29 06:41:05;;;;;;;8.27;5.75;;;;;;;29.63;25.35;99908.94;4987640;28;101009;-74
2022/05/29 06:43:30;;;;;;;7.13;2.03;;;;;;;30.50;24.82;99891.09;4986012;28;97401;-74
2022/05/29 06:46:00;;;;;;;10.23;2.45;;;;;;;31.31;23.49;99897.91;4996591;28;97003;-74
2022/05/29 06:48:26;;;;;;;9.93;9.10;;;;;;;30.81;23.69;99905.22;4983928;28;101101;-74
2022/05/29 06:50:52;;;;;;;14.00;10.70;;;;;;;30.79;24.09;99901.84;4983355;28;101447;-75
2022/05/29 06:53:17;;;;;;;9.82;9.00;;;;;;;31.80;23.17;99904.31;4987958;28;97155;-74
2022/05/29 06:55:55;;;;;;;10.20;9.20;;;;;;;31.21;23.63;99905.53;5004527;28;98046;-75
2022/05/29 06:58:22;;;;;;;9.70;8.90;;;;;;;31.23;23.41;99897.22;5003520;28;101192;-75
2022/05/29 07:09:01;;;;;;;10.43;9.52;;;;;;;33.32;21.59;99895.75;5001348;28;100973;-75
2022/05/29 07:11:30;;;;;;;10.07;9.15;;;;;;;32.92;22.00;99886.72;4976106;28;101559;-74
2022/05/29 07:13:56;;;;;;;10.33;9.33;;;;;;;33.64;21.60;99886.94;5019283;28;96846;-74
2022/05/29 07:16:22;;;;;;;11.55;10.43;;;;;;;33.81;20.99;99888.16;5006258;28;97719;-75
2022/05/29 07:18:50;;;;;;;10.23;9.27;;;;;;;34.00;20.87;99895.38;4969934;28;101238;-75
2022/05/29 07:21:16;;;;;;;11.00;10.10;;;;;;;34.50;20.19;99886.56;4988887;28;98268;-75
2022/05/29 07:23:43;;;;;;;11.05;10.13;;;;;;;34.29;20.54;99870.59;4986040;28;98096;-74
2022/05/29 07:26:09;;;;;;;11.70;9.88;;;;;;;34.44;20.23;99862.94;4972933;28;97400;-74
2022/05/29 07:28:37;;;;;;;10.23;9.32;;;;;;;34.84;19.82;99849.91;4988872;28;101085;-74
2022/05/29 07:31:03;;;;;;;9.95;9.07;;;;;;;34.15;20.07;99892.44;4999753;28;97800;-74
2022/05/29 07:33:29;;;;;;;10.05;9.18;;;;;;;34.29;20.46;99887.75;5004859;28;97352;-74
2022/05/29 07:35:55;;;;;;;10.80;9.98;;;;;;;31.65;21.42;99892.72;4983152;28;98509;-75
2022/05/29 07:38:21;;;;;;;10.93;10.05;;;;;;;32.97;20.62;99888.84;5017395;28;97374;-74
2022/05/29 07:40:46;;;;;;;10.90;10.00;;;;;;;33.49;20.58;99892.59;5002348;28;101237;-74
2022/05/29 07:43:24;;;;;;;10.93;9.90;;;;;;;34.19;19.98;99888.22;4965152;28;97352;-74
2022/05/29 07:45:57;;;;;;;10.30;9.40;;;;;;;34.70;19.71;99878.31;4979124;28;98063;-74
2022/05/29 07:48:25;;;;;;;11.35;10.45;;;;;;;33.45;20.25;99889.44;4982240;28;101851;-74
2022/05/29 07:50:51;;;;;;;11.30;10.35;;;;;;;31.99;21.47;99886.47;5000861;28;97881;-75
2022/05/29 07:53:18;;;;;;;11.13;10.15;;;;;;;29.92;22.73;99894.56;4964078;28;97295;-74
2022/05/29 07:55:43;;;;;;;10.85;9.77;;;;;;;32.57;21.01;99876.03;4989075;28;97045;-73
2022/05/29 07:58:10;;;;;;;11.55;10.55;;;;;;;32.94;20.62;99889.25;4985423;28;101530;-74
2022/05/29 08:00:35;;;;;;;11.60;10.75;;;;;;;33.56;19.41;99896.16;4986993;28;101014;-74
2022/05/29 08:03:01;;;;;;;12.32;11.20;;;;;;;32.78;20.08;99888.59;4963884;28;97124;-74
2022/05/29 08:05:29;;;;;;;10.63;9.73;;;;;;;33.70;19.34;99870.59;4995963;28;97813;-74
2022/05/29 08:07:55;;;;;;;10.55;9.60;;;;;;;33.51;20.12;99864.16;4987590;28;97958;-75
2022/05/29 08:10:22;;;;;;;11.05;10.05;;;;;;;32.78;20.74;99883.16;4990057;28;97263;-74
2022/05/29 08:12:48;;;;;;;11.13;10.30;;;;;;;35.03;18.83;99875.34;4969016;28;96856;-74
2022/05/29 08:15:13;;;;;;;11.23;10.32;;;;;;;35.01;18.55;99871.16;4956009;28;97124;-74
2022/05/29 08:17:40;;;;;;;14.98;13.57;;;;;;;34.34;19.07;99857.97;4974262;28;101482;-74
2022/05/29 08:20:07;;;;;;;12.30;11.20;;;;;;;32.68;20.93;99855.59;4994482;28;98402;-74
2022/05/29 08:22:32;;;;;;;10.20;9.30;;;;;;;31.87;21.02;99864.47;4999467;28;98629;-74
2022/05/29 08:30:43;;;;;;;10.75;10.00;;;;;;;28.08;24.23;99859.63;5009112;28;97499;-74
2022/05/29 08:33:19;;;;;;;10.35;9.40;;;;;;;27.08;25.04;99864.56;4974908;28;97292;-74
2022/05/29 08:35:47;;;;;;;11.70;10.70;;;;;;;28.72;23.77;99854.00;4994440;28;97243;-74
2022/05/29 08:38:13;;;;;;;10.75;9.85;;;;;;;30.18;22.33;99863.44;4992414;28;97441;-74
2022/05/29 08:41:04;;;;;;;10.00;9.27;;;;;;;31.23;20.78;99867.41;4975793;28;101022;-73
2022/05/29 08:43:33;;;;;;;10.90;10.00;;;;;;;31.11;20.28;99862.53;5005372;28;97045;-74
2022/05/29 08:46:19;;;;;;;10.43;9.63;;;;;;;32.03;20.09;99860.63;4995943;28;97254;-76
2022/05/29 08:48:46;;;;;;;10.85;9.95;;;;;;;30.71;20.63;99865.91;4988456;28;100213;-74
2022/05/29 08:51:31;;;;;;;10.48;9.52;;;;;;;30.82;21.60;99857.28;4986090;28;101470;-74
2022/05/29 08:54:24;;;;;;;9.68;8.77;;;;;;;29.49;23.20;99869.16;5019946;28;97338;-74
2022/05/29 08:57:14;;;;;;;10.30;9.43;;;;;;;28.34;24.11;99875.50;5003210;28;97064;-75
2022/05/29 08:59:52;;;;;;;10.30;9.52;;;;;;;27.19;24.82;99875.03;4999029;28;101559;-74
2022/05/29 09:02:40;;;;;;;10.18;9.38;;;;;;;26.76;24.67;99871.66;5000095;28;104198;-75
2022/05/29 09:05:13;;;;;;;10.38;9.57;;;;;;;26.50;25.40;99844.91;5000761;28;97314;-76
2022/05/29 09:07:39;;;;;;;9.77;9.05;;;;;;;27.07;24.35;99861.03;4999295;28;98926;-73
2022/05/29 09:10:18;;;;;;;10.75;9.75;;;;;;;26.63;24.42;99865.91;4985734;28;101372;-74
2022/05/29 09:12:47;;;;;;;9.70;8.90;;;;;;;26.22;24.62;99862.28;4985198;28;101469;-76
2022/05/29 09:15:21;;;;;;;9.85;9.05;;;;;;;25.02;26.22;99837.97;4999734;28;97316;-74
2022/05/29 09:17:52;;;;;;;10.90;9.80;;;;;;;24.83;26.10;99862.31;4988098;28;99048;-74
2022/05/29 09:20:30;;;;;;;10.73;9.85;;;;;;;24.49;27.33;99860.31;4989424;28;100899;-73
2022/05/29 09:23:00;;;;;;;13.55;12.35;;;;;;;25.35;27.22;99840.88;5002424;28;97965;-74
2022/05/29 09:25:42;;;;;;;9.93;9.02;;;;;;;25.24;26.65;99860.78;5005555;28;96766;-73
2022/05/29 09:28:24;;;;;;;9.93;9.15;;;;;;;25.01;27.10;99864.97;5005877;28;97272;-73
2022/05/29 09:31:06;;;;;;;10.27;9.48;;;;;;;24.89;26.91;99850.94;5005693;28;98337;-74
2022/05/29 09:33:32;;;;;;;9.93;9.18;;;;;;;24.53;27.95;99860.88;4982302;28;99418;-73
2022/05/29 09:36:06;;;;;;;9.75;8.93;;;;;;;24.27;28.55;99860.75;5005045;28;97089;-73
2022/05/29 09:38:50;;;;;;;9.95;9.15;;;;;;;24.91;28.17;99850.81;5004651;28;97100;-73
2022/05/29 09:41:37;;;;;;;10.00;9.10;;;;;;;25.03;27.43;99852.22;5025990;28;101579;-73
2022/05/29 09:44:16;;;;;;;10.32;9.20;;;;;;;25.29;27.25;99844.22;5004032;28;101640;-75
2022/05/29 09:46:44;;;;;;;9.13;8.50;;;;;;;24.44;27.53;99833.13;4985041;28;96828;-75
2022/05/29 09:49:42;;;;;;;10.25;9.32;;;;;;;23.57;28.63;99839.78;4988868;28;96919;-80
2022/05/29 09:52:22;;;;;;;9.73;8.88;;;;;;;23.35;29.03;99843.66;4982641;28;101188;-79
2022/05/29 09:54:51;;;;;;;;;;;;;;;23.70;29.55;99837.63;5019291;28;98388;-80
2022/05/29 09:57:23;;;;;;;9.88;9.07;;;;;;;24.10;28.66;99830.22;5012134;28;96718;-85
2022/05/29 09:59:51;;;;;;;10.45;9.32;;;;;;;24.34;29.33;99835.00;4970384;28;97317;-86
2022/05/29 10:02:31;;;;;;;9.15;8.45;;;;;;;24.18;30.12;99839.19;5009558;28;98144;-85
2022/05/29 10:05:00;;;;;;;9.73;8.80;;;;;;;23.67;29.04;99840.56;5008037;28;101326;-82
2022/05/29 10:07:36;;;;;;;10.15;9.27;;;;;;;23.03;29.76;99828.81;4999721;28;96952;-84
2022/05/29 10:10:04;;;;;;;9.70;9.00;;;;;;;22.33;31.11;99829.94;4980152;28;97019;-82
2022/05/29 10:12:49;;;;;;;10.18;9.23;;;;;;;22.69;31.15;99855.16;4996540;28;100774;-81
2022/05/29 10:15:24;;;;;;;11.18;10.10;;;;;;;22.71;30.17;99855.00;5003331;28;98015;-82
2022/05/29 10:17:50;;;;;;;13.95;12.65;;;;;;;22.61;30.17;99849.69;4991884;28;96715;-81
2022/05/29 10:20:26;;;;;;;11.55;10.65;;;;;;;22.83;30.75;99860.09;4976801;28;97984;-81
2022/05/29 10:22:54;;;;;;;10.07;9.20;;;;;;;22.98;30.34;99855.19;4992132;28;101028;-81
2022/05/29 10:25:23;;;;;;;10.20;9.50;;;;;;;23.00;29.98;99846.97;4993301;28;97214;-84
2022/05/29 10:27:50;;;;;;;9.80;9.00;;;;;;;22.87;29.65;99838.41;4991778;28;96953;-81
2022/05/29 10:30:35;;;;;;;9.30;8.70;;;;;;;22.25;30.33;99833.34;4975564;28;96842;-83
2022/05/29 10:33:10;;;;;;;9.77;8.98;;;;;;;22.41;30.31;99837.28;4990779;28;101370;-82
2022/05/29 10:35:40;;;;;;;9.38;8.65;;;;;;;22.58;30.58;99818.69;4992900;28;97709;-82
2022/05/29 10:38:23;;;;;;;9.23;8.52;;;;;;;22.54;30.23;99829.81;4991438;28;96701;-80
2022/05/29 10:40:51;;;;;;;9.75;8.98;;;;;;;22.54;30.84;99811.09;4974376;28;96924;-83
2022/05/29 10:43:44;;;;;;;8.90;8.23;;;;;;;22.65;31.48;99823.47;4990428;28;97274;-83
2022/05/29 10:46:19;;;;;;;9.45;8.75;;;;;;;22.77;35.38;99833.03;5006473;28;100815;-84
2022/05/29 10:49:03;;;;;;;9.15;8.35;;;;;;;22.99;32.17;99839.97;4987776;28;97736;-80
2022/05/29 10:52:06;;;;;;;10.38;9.40;;;;;;;22.87;32.38;99833.88;4995186;28;96933;-83
2022/05/29 10:54:39;;;;;;;10.50;9.70;;;;;;;22.98;33.58;99839.13;4996291;28;101729;-82
2022/05/29 10:57:46;;;;;;;10.40;9.50;;;;;;;23.04;30.35;99817.13;4994887;28;97503;-83
2022/05/29 11:00:28;;;;;;;9.93;9.02;;;;;;;22.99;32.04;99819.38;4985772;28;96889;-83
2022/05/29 11:03:18;;;;;;;10.35;9.35;;;;;;;23.24;30.29;99822.41;4944496;28;98409;-83
2022/05/29 11:06:09;;;;;;;10.50;9.52;;;;;;;23.14;29.21;99819.78;4980576;28;101311;-82
2022/05/29 11:08:58;;;;;;;9.43;8.63;;;;;;;22.98;29.67;99814.16;4950357;28;99476;-83
2022/05/29 11:12:06;;;;;;;10.45;9.55;;;;;;;23.11;30.63;99816.53;4969589;28;97439;-85
2022/05/29 11:14:42;;;;;;;9.50;8.60;;;;;;;23.21;30.07;99810.19;4965004;28;97260;-83
2022/05/29 11:17:25;;;;;;;9.55;8.30;;;;;;;23.04;29.96;99803.75;4979334;28;97671;-82
2022/05/29 11:20:01;;;;;;;8.07;7.35;;;;;;;22.83;30.72;99806.59;4982516;28;99624;-82
2022/05/29 11:22:48;;;;;;;9.10;8.30;;;;;;;22.88;30.55;99800.78;4965473;28;97202;-82
2022/05/29 11:25:22;;;;;;;8.65;7.88;;;;;;;22.72;30.19;99779.09;4981552;28;97512;-83
2022/05/29 11:28:22;;;;;;;9.15;8.43;;;;;;;22.75;29.55;99790.41;4968984;28;101801;-82
2022/05/29 11:31:17;;;;;;;8.68;7.85;;;;;;;22.63;29.63;99796.91;4990190;28;97954;-82
2022/05/29 11:34:06;;;;;;;8.63;7.90;;;;;;;22.37;30.24;99767.22;5000686;28;97248;-82
2022/05/29 11:36:49;;;;;;;9.30;8.52;;;;;;;22.43;30.24;99780.00;4997760;28;98127;-82
2022/05/29 11:39:29;;;;;;;8.80;8.10;;;;;;;22.33;30.11;99779.16;5021998;28;101890;-82
2022/05/29 11:42:08;;;;;;;8.55;7.85;;;;;;;22.25;30.08;99774.53;5002779;28;97904;-82
2022/05/29 11:44:37;;;;;;;8.82;8.13;;;;;;;22.33;30.62;99763.09;4993289;28;97568;-83
2022/05/29 11:53:21;;;;;;;9.38;8.70;;;;;;;22.48;30.65;99767.03;4989537;28;97580;-81
2022/05/29 11:55:49;;;;;;;9.10;8.40;;;;;;;22.58;30.14;99769.72;4991949;28;96585;-81
2022/05/29 11:58:28;;;;;;;9.68;8.82;;;;;;;22.52;31.06;99754.25;4980971;28;98130;-81
2022/05/29 12:00:58;;;;;;;8.80;8.10;;;;;;;22.37;30.40;99773.41;5007339;28;97589;-82
2022/05/29 12:03:30;;;;;;;9.50;8.50;;;;;;;22.41;30.46;99765.94;5005448;28;98440;-82
2022/05/29 12:06:00;;;;;;;8.90;8.00;;;;;;;22.42;30.33;99746.22;5002635;28;96786;-83
2022/05/29 12:08:42;;;;;;;9.68;8.55;;;;;;;22.27;30.68;99744.97;5001641;28;96874;-82
2022/05/29 12:11:33;;;;;;;9.05;8.25;;;;;;;22.28;30.74;99750.19;5002357;28;97806;-82
2022/05/29 12:14:20;;;;;;;8.55;8.05;;;;;;;22.26;30.43;99754.81;4998908;28;100856;-77
2022/05/29 12:16:48;;;;;;;8.75;8.20;;;;;;;22.20;30.41;99760.72;5021187;28;97252;-76
2022/05/29 12:19:29;;;;;;;8.68;7.85;;;;;;;21.95;31.66;99739.84;4988322;28;97581;-79
2022/05/29 12:22:07;;;;;;;12.48;11.40;;;;;;;22.09;30.79;99759.00;4984955;28;101282;-73